sensor_id;sensor_type;location;lat;lon;timestamp;P1;durP1;ratioP1;P2;durP2;ratioP2
16642;SDS011;8435;52.184;5.406;2024-02-21T00:02:01;8.30;;;3.13;;
16642;SDS011;8435;52.184;5.406;2024-02-21T00:04:29;6.13;;;2.93;;
16642;SDS011;8435;52.184;5.406;2024-02-21T00:06:56;6.00;;;2.80;;
16642;SDS011;8435;52.184;5.406;2024-02-21T00:09:23;7.83;;;3.33;;
16642;SDS011;8435;52.184;5.406;2024-02-21T00:11:50;8.37;;;3.40;;
16642;SDS011;8435;52.184;5.406;2024-02-21T00:14:16;11.97;;;3.70;;
16642;SDS011;8435;52.184;5.406;2024-02-21T00:16:43;6.33;;;2.80;;
16642;SDS011;8435;52.184;5.406;2024-02-21T00:19:12;8.43;;;3.60;;
16642;SDS011;8435;52.184;5.406;2024-02-21T00:21:41;8.77;;;3.43;;
16642;SDS011;8435;52.184;5.406;2024-02-21T00:24:07;6.90;;;2.70;;
16642;SDS011;8435;52.184;5.406;2024-02-21T00:26:34;6.50;;;2.60;;
16642;SDS011;8435;52.184;5.406;2024-02-21T00:29:01;8.87;;;3.33;;
16642;SDS011;8435;52.184;5.406;2024-02-21T00:31:28;8.50;;;3.33;;
16642;SDS011;8435;52.184;5.406;2024-02-21T00:33:54;7.70;;;2.77;;
16642;SDS011;8435;52.184;5.406;2024-02-21T00:36:21;10.13;;;3.30;;
16642;SDS011;8435;52.184;5.406;2024-02-21T00:38:49;7.57;;;3.53;;
16642;SDS011;8435;52.184;5.406;2024-02-21T00:41:16;8.33;;;3.27;;
16642;SDS011;8435;52.184;5.406;2024-02-21T00:43:43;8.73;;;2.87;;
16642;SDS011;8435;52.184;5.406;2024-02-21T00:46:09;7.60;;;3.17;;
16642;SDS011;8435;52.184;5.406;2024-02-21T00:48:36;9.20;;;3.03;;
16642;SDS011;8435;52.184;5.406;2024-02-21T00:51:03;8.50;;;2.90;;
16642;SDS011;8435;52.184;5.406;2024-02-21T00:53:30;7.17;;;3.20;;
16642;SDS011;8435;52.184;5.406;2024-02-21T00:55:58;5.80;;;2.93;;
16642;SDS011;8435;52.184;5.406;2024-02-21T00:58:25;8.47;;;3.73;;
16642;SDS011;8435;52.184;5.406;2024-02-21T01:00:51;11.43;;;3.40;;
16642;SDS011;8435;52.184;5.406;2024-02-21T01:03:18;8.70;;;3.63;;
16642;SDS011;8435;52.184;5.406;2024-02-21T01:05:45;6.03;;;2.90;;
16642;SDS011;8435;52.184;5.406;2024-02-21T01:08:12;10.57;;;3.73;;
16642;SDS011;8435;52.184;5.406;2024-02-21T01:10:38;10.20;;;3.87;;
16642;SDS011;8435;52.184;5.406;2024-02-21T01:13:07;6.03;;;3.17;;
16642;SDS011;8435;52.184;5.406;2024-02-21T01:15:33;6.17;;;3.37;;
16642;SDS011;8435;52.184;5.406;2024-02-21T01:18:00;6.33;;;3.53;;
16642;SDS011;8435;52.184;5.406;2024-02-21T01:20:27;8.07;;;3.77;;
16642;SDS011;8435;52.184;5.406;2024-02-21T01:22:54;7.77;;;4.33;;
16642;SDS011;8435;52.184;5.406;2024-02-21T01:25:21;8.93;;;4.27;;
16642;SDS011;8435;52.184;5.406;2024-02-21T01:27:47;8.70;;;4.37;;
16642;SDS011;8435;52.184;5.406;2024-02-21T01:30:15;8.13;;;3.87;;
16642;SDS011;8435;52.184;5.406;2024-02-21T01:32:42;7.23;;;4.20;;
16642;SDS011;8435;52.184;5.406;2024-02-21T01:35:09;8.57;;;4.20;;
16642;SDS011;8435;52.184;5.406;2024-02-21T01:37:36;7.33;;;4.23;;
16642;SDS011;8435;52.184;5.406;2024-02-21T01:40:03;8.73;;;4.20;;
16642;SDS011;8435;52.184;5.406;2024-02-21T01:42:31;11.93;;;4.63;;
16642;SDS011;8435;52.184;5.406;2024-02-21T01:44:57;8.97;;;4.07;;
16642;SDS011;8435;52.184;5.406;2024-02-21T01:47:26;10.27;;;4.23;;
16642;SDS011;8435;52.184;5.406;2024-02-21T01:49:53;10.53;;;4.57;;
16642;SDS011;8435;52.184;5.406;2024-02-21T01:52:19;6.37;;;4.00;;
16642;SDS011;8435;52.184;5.406;2024-02-21T01:54:46;9.63;;;4.13;;
16642;SDS011;8435;52.184;5.406;2024-02-21T01:57:14;6.23;;;4.10;;
16642;SDS011;8435;52.184;5.406;2024-02-21T01:59:41;6.90;;;3.83;;
16642;SDS011;8435;52.184;5.406;2024-02-21T02:02:08;8.60;;;4.37;;
16642;SDS011;8435;52.184;5.406;2024-02-21T02:04:37;5.87;;;4.17;;
16642;SDS011;8435;52.184;5.406;2024-02-21T02:07:04;9.50;;;4.47;;
16642;SDS011;8435;52.184;5.406;2024-02-21T02:09:33;9.13;;;4.07;;
16642;SDS011;8435;52.184;5.406;2024-02-21T02:12:01;7.43;;;3.60;;
16642;SDS011;8435;52.184;5.406;2024-02-21T02:14:28;8.53;;;4.10;;
16642;SDS011;8435;52.184;5.406;2024-02-21T02:16:55;8.40;;;3.77;;
16642;SDS011;8435;52.184;5.406;2024-02-21T02:19:22;8.20;;;4.17;;
16642;SDS011;8435;52.184;5.406;2024-02-21T02:21:51;9.17;;;3.80;;
16642;SDS011;8435;52.184;5.406;2024-02-21T02:24:23;9.40;;;4.07;;
16642;SDS011;8435;52.184;5.406;2024-02-21T02:26:51;7.93;;;3.93;;
16642;SDS011;8435;52.184;5.406;2024-02-21T02:29:18;7.97;;;4.27;;
16642;SDS011;8435;52.184;5.406;2024-02-21T02:31:44;7.50;;;3.93;;
16642;SDS011;8435;52.184;5.406;2024-02-21T02:34:11;9.07;;;4.40;;
16642;SDS011;8435;52.184;5.406;2024-02-21T02:36:38;7.90;;;4.43;;
16642;SDS011;8435;52.184;5.406;2024-02-21T02:39:05;9.80;;;4.67;;
16642;SDS011;8435;52.184;5.406;2024-02-21T02:41:35;10.47;;;4.03;;
16642;SDS011;8435;52.184;5.406;2024-02-21T02:44:02;13.13;;;4.23;;
16642;SDS011;8435;52.184;5.406;2024-02-21T02:46:29;7.93;;;3.70;;
16642;SDS011;8435;52.184;5.406;2024-02-21T02:48:56;7.57;;;4.10;;
16642;SDS011;8435;52.184;5.406;2024-02-21T02:51:23;10.57;;;4.17;;
16642;SDS011;8435;52.184;5.406;2024-02-21T02:53:49;8.33;;;4.40;;
16642;SDS011;8435;52.184;5.406;2024-02-21T02:56:16;7.70;;;4.23;;
16642;SDS011;8435;52.184;5.406;2024-02-21T02:58:44;6.67;;;4.20;;
16642;SDS011;8435;52.184;5.406;2024-02-21T03:01:11;9.00;;;4.60;;
16642;SDS011;8435;52.184;5.406;2024-02-21T03:03:38;7.03;;;4.77;;
16642;SDS011;8435;52.184;5.406;2024-02-21T03:06:05;5.67;;;4.20;;
16642;SDS011;8435;52.184;5.406;2024-02-21T03:08:32;7.00;;;4.43;;
16642;SDS011;8435;52.184;5.406;2024-02-21T03:10:59;9.70;;;4.90;;
16642;SDS011;8435;52.184;5.406;2024-02-21T03:13:26;8.13;;;5.00;;
16642;SDS011;8435;52.184;5.406;2024-02-21T03:15:54;6.53;;;4.70;;
16642;SDS011;8435;52.184;5.406;2024-02-21T03:18:20;9.97;;;5.03;;
16642;SDS011;8435;52.184;5.406;2024-02-21T03:20:47;11.03;;;5.13;;
16642;SDS011;8435;52.184;5.406;2024-02-21T03:23:14;12.43;;;5.37;;
16642;SDS011;8435;52.184;5.406;2024-02-21T03:25:41;9.73;;;5.53;;
16642;SDS011;8435;52.184;5.406;2024-02-21T03:28:08;8.40;;;5.03;;
16642;SDS011;8435;52.184;5.406;2024-02-21T03:30:35;8.47;;;5.63;;
16642;SDS011;8435;52.184;5.406;2024-02-21T03:33:03;9.60;;;5.00;;
16642;SDS011;8435;52.184;5.406;2024-02-21T03:35:30;7.93;;;5.00;;
16642;SDS011;8435;52.184;5.406;2024-02-21T03:37:57;8.87;;;5.43;;
16642;SDS011;8435;52.184;5.406;2024-02-21T03:40:23;7.30;;;4.67;;
16642;SDS011;8435;52.184;5.406;2024-02-21T03:42:50;8.63;;;5.27;;
16642;SDS011;8435;52.184;5.406;2024-02-21T03:45:17;6.87;;;5.40;;
16642;SDS011;8435;52.184;5.406;2024-02-21T03:47:43;9.40;;;5.47;;
16642;SDS011;8435;52.184;5.406;2024-02-21T03:50:12;6.73;;;5.27;;
16642;SDS011;8435;52.184;5.406;2024-02-21T03:52:38;11.60;;;6.00;;
16642;SDS011;8435;52.184;5.406;2024-02-21T03:55:06;10.10;;;5.67;;
16642;SDS011;8435;52.184;5.406;2024-02-21T03:57:33;8.50;;;5.80;;
16642;SDS011;8435;52.184;5.406;2024-02-21T04:00:00;7.20;;;5.30;;
16642;SDS011;8435;52.184;5.406;2024-02-21T04:02:28;8.30;;;5.80;;
16642;SDS011;8435;52.184;5.406;2024-02-21T04:04:55;8.97;;;5.30;;
16642;SDS011;8435;52.184;5.406;2024-02-21T04:07:23;9.87;;;5.13;;
16642;SDS011;8435;52.184;5.406;2024-02-21T04:09:50;5.83;;;5.17;;
16642;SDS011;8435;52.184;5.406;2024-02-21T04:12:17;9.17;;;5.90;;
16642;SDS011;8435;52.184;5.406;2024-02-21T04:14:43;9.97;;;5.50;;
16642;SDS011;8435;52.184;5.406;2024-02-21T04:17:10;6.63;;;5.67;;
16642;SDS011;8435;52.184;5.406;2024-02-21T04:19:37;8.10;;;5.50;;
16642;SDS011;8435;52.184;5.406;2024-02-21T04:22:04;10.20;;;6.03;;
16642;SDS011;8435;52.184;5.406;2024-02-21T04:24:32;10.13;;;5.93;;
16642;SDS011;8435;52.184;5.406;2024-02-21T04:26:59;8.00;;;5.80;;
16642;SDS011;8435;52.184;5.406;2024-02-21T04:29:25;10.63;;;5.53;;
16642;SDS011;8435;52.184;5.406;2024-02-21T04:31:53;7.37;;;5.63;;
16642;SDS011;8435;52.184;5.406;2024-02-21T04:34:20;11.27;;;6.27;;
16642;SDS011;8435;52.184;5.406;2024-02-21T04:36:47;12.43;;;6.00;;
16642;SDS011;8435;52.184;5.406;2024-02-21T04:39:13;6.57;;;5.90;;
16642;SDS011;8435;52.184;5.406;2024-02-21T04:41:42;6.17;;;5.13;;
16642;SDS011;8435;52.184;5.406;2024-02-21T04:44:09;11.10;;;5.57;;
16642;SDS011;8435;52.184;5.406;2024-02-21T04:46:35;5.73;;;5.20;;
16642;SDS011;8435;52.184;5.406;2024-02-21T04:49:02;7.23;;;5.40;;
16642;SDS011;8435;52.184;5.406;2024-02-21T04:51:29;12.37;;;5.80;;
16642;SDS011;8435;52.184;5.406;2024-02-21T04:53:56;6.73;;;5.17;;
16642;SDS011;8435;52.184;5.406;2024-02-21T04:56:22;7.13;;;5.20;;
16642;SDS011;8435;52.184;5.406;2024-02-21T04:58:51;12.40;;;6.07;;
16642;SDS011;8435;52.184;5.406;2024-02-21T05:01:18;7.40;;;5.37;;
16642;SDS011;8435;52.184;5.406;2024-02-21T05:03:44;7.27;;;5.27;;
16642;SDS011;8435;52.184;5.406;2024-02-21T05:06:11;7.20;;;5.53;;
16642;SDS011;8435;52.184;5.406;2024-02-21T05:08:38;7.97;;;5.97;;
16642;SDS011;8435;52.184;5.406;2024-02-21T05:11:05;10.00;;;5.90;;
16642;SDS011;8435;52.184;5.406;2024-02-21T05:13:32;9.03;;;5.90;;
16642;SDS011;8435;52.184;5.406;2024-02-21T05:16:00;7.50;;;5.73;;
16642;SDS011;8435;52.184;5.406;2024-02-21T05:18:28;8.07;;;5.47;;
16642;SDS011;8435;52.184;5.406;2024-02-21T05:20:54;8.73;;;6.30;;
16642;SDS011;8435;52.184;5.406;2024-02-21T05:23:21;7.13;;;6.23;;
16642;SDS011;8435;52.184;5.406;2024-02-21T05:25:48;6.93;;;6.23;;
16642;SDS011;8435;52.184;5.406;2024-02-21T05:28:15;7.57;;;6.10;;
16642;SDS011;8435;52.184;5.406;2024-02-21T05:30:41;9.53;;;6.30;;
16642;SDS011;8435;52.184;5.406;2024-02-21T05:33:10;9.27;;;6.63;;
16642;SDS011;8435;52.184;5.406;2024-02-21T05:35:37;7.67;;;6.40;;
16642;SDS011;8435;52.184;5.406;2024-02-21T05:38:04;8.60;;;6.30;;
16642;SDS011;8435;52.184;5.406;2024-02-21T05:40:36;10.17;;;7.70;;
16642;SDS011;8435;52.184;5.406;2024-02-21T05:43:03;8.77;;;6.67;;
16642;SDS011;8435;52.184;5.406;2024-02-21T05:45:30;7.53;;;6.70;;
16642;SDS011;8435;52.184;5.406;2024-02-21T05:47:56;7.87;;;7.07;;
16642;SDS011;8435;52.184;5.406;2024-02-21T05:50:23;9.83;;;7.27;;
16642;SDS011;8435;52.184;5.406;2024-02-21T05:52:51;8.77;;;6.73;;
16642;SDS011;8435;52.184;5.406;2024-02-21T05:55:18;9.87;;;6.83;;
16642;SDS011;8435;52.184;5.406;2024-02-21T05:57:45;10.97;;;7.23;;
16642;SDS011;8435;52.184;5.406;2024-02-21T06:00:12;6.70;;;6.10;;
16642;SDS011;8435;52.184;5.406;2024-02-21T06:02:40;8.40;;;7.37;;
16642;SDS011;8435;52.184;5.406;2024-02-21T06:05:07;7.87;;;6.33;;
16642;SDS011;8435;52.184;5.406;2024-02-21T06:07:36;9.63;;;6.17;;
16642;SDS011;8435;52.184;5.406;2024-02-21T06:10:03;9.03;;;6.80;;
16642;SDS011;8435;52.184;5.406;2024-02-21T06:12:30;7.13;;;6.20;;
16642;SDS011;8435;52.184;5.406;2024-02-21T06:14:57;10.23;;;6.17;;
16642;SDS011;8435;52.184;5.406;2024-02-21T06:17:23;10.07;;;7.47;;
16642;SDS011;8435;52.184;5.406;2024-02-21T06:19:51;9.03;;;6.13;;
16642;SDS011;8435;52.184;5.406;2024-02-21T06:22:18;8.83;;;6.10;;
16642;SDS011;8435;52.184;5.406;2024-02-21T06:24:46;9.37;;;6.90;;
16642;SDS011;8435;52.184;5.406;2024-02-21T06:27:13;8.63;;;7.13;;
16642;SDS011;8435;52.184;5.406;2024-02-21T06:29:41;9.97;;;7.83;;
16642;SDS011;8435;52.184;5.406;2024-02-21T06:32:08;8.73;;;6.83;;
16642;SDS011;8435;52.184;5.406;2024-02-21T06:34:35;8.70;;;7.33;;
16642;SDS011;8435;52.184;5.406;2024-02-21T06:37:02;8.80;;;7.43;;
16642;SDS011;8435;52.184;5.406;2024-02-21T06:39:29;9.80;;;7.57;;
16642;SDS011;8435;52.184;5.406;2024-02-21T06:41:57;9.23;;;7.73;;
16642;SDS011;8435;52.184;5.406;2024-02-21T06:44:23;8.07;;;7.27;;
16642;SDS011;8435;52.184;5.406;2024-02-21T06:46:52;8.23;;;7.37;;
16642;SDS011;8435;52.184;5.406;2024-02-21T06:49:19;9.83;;;8.00;;
16642;SDS011;8435;52.184;5.406;2024-02-21T06:51:46;10.83;;;9.10;;
16642;SDS011;8435;52.184;5.406;2024-02-21T06:54:13;10.83;;;9.23;;
16642;SDS011;8435;52.184;5.406;2024-02-21T06:56:40;10.87;;;9.20;;
16642;SDS011;8435;52.184;5.406;2024-02-21T06:59:08;14.10;;;10.60;;
16642;SDS011;8435;52.184;5.406;2024-02-21T07:01:35;11.07;;;9.80;;
16642;SDS011;8435;52.184;5.406;2024-02-21T07:04:02;13.53;;;10.13;;
16642;SDS011;8435;52.184;5.406;2024-02-21T07:06:29;13.40;;;9.90;;
16642;SDS011;8435;52.184;5.406;2024-02-21T07:08:56;12.80;;;10.73;;
16642;SDS011;8435;52.184;5.406;2024-02-21T07:11:23;14.57;;;11.10;;
16642;SDS011;8435;52.184;5.406;2024-02-21T07:13:49;14.10;;;10.70;;
16642;SDS011;8435;52.184;5.406;2024-02-21T07:16:18;15.50;;;11.23;;
16642;SDS011;8435;52.184;5.406;2024-02-21T07:18:45;14.27;;;10.80;;
16642;SDS011;8435;52.184;5.406;2024-02-21T07:21:11;14.37;;;11.90;;
16642;SDS011;8435;52.184;5.406;2024-02-21T07:23:40;16.60;;;11.77;;
16642;SDS011;8435;52.184;5.406;2024-02-21T07:26:07;15.00;;;11.07;;
16642;SDS011;8435;52.184;5.406;2024-02-21T07:28:33;14.60;;;11.40;;
16642;SDS011;8435;52.184;5.406;2024-02-21T07:31:00;15.67;;;11.93;;
16642;SDS011;8435;52.184;5.406;2024-02-21T07:33:28;18.73;;;12.43;;
16642;SDS011;8435;52.184;5.406;2024-02-21T07:35:56;16.37;;;12.67;;
16642;SDS011;8435;52.184;5.406;2024-02-21T07:38:22;15.70;;;12.27;;
16642;SDS011;8435;52.184;5.406;2024-02-21T07:40:49;16.97;;;13.13;;
16642;SDS011;8435;52.184;5.406;2024-02-21T07:43:16;15.90;;;11.07;;
16642;SDS011;8435;52.184;5.406;2024-02-21T07:45:43;15.53;;;11.07;;
16642;SDS011;8435;52.184;5.406;2024-02-21T07:48:10;16.37;;;11.80;;
16642;SDS011;8435;52.184;5.406;2024-02-21T07:50:38;17.33;;;11.97;;
16642;SDS011;8435;52.184;5.406;2024-02-21T07:53:04;14.63;;;11.73;;
16642;SDS011;8435;52.184;5.406;2024-02-21T07:55:31;16.53;;;11.87;;
16642;SDS011;8435;52.184;5.406;2024-02-21T07:57:58;11.43;;;10.23;;
16642;SDS011;8435;52.184;5.406;2024-02-21T08:00:25;14.37;;;11.00;;
16642;SDS011;8435;52.184;5.406;2024-02-21T08:02:52;13.57;;;10.43;;
16642;SDS011;8435;52.184;5.406;2024-02-21T08:05:18;11.20;;;9.43;;
16642;SDS011;8435;52.184;5.406;2024-02-21T08:07:48;10.80;;;8.93;;
16642;SDS011;8435;52.184;5.406;2024-02-21T08:10:14;10.27;;;9.10;;
16642;SDS011;8435;52.184;5.406;2024-02-21T08:12:41;12.60;;;9.13;;
16642;SDS011;8435;52.184;5.406;2024-02-21T08:15:08;14.10;;;9.77;;
16642;SDS011;8435;52.184;5.406;2024-02-21T08:17:35;11.67;;;8.93;;
16642;SDS011;8435;52.184;5.406;2024-02-21T08:20:02;13.10;;;9.27;;
16642;SDS011;8435;52.184;5.406;2024-02-21T08:22:30;11.80;;;8.77;;
16642;SDS011;8435;52.184;5.406;2024-02-21T08:24:58;11.77;;;9.03;;
16642;SDS011;8435;52.184;5.406;2024-02-21T08:27:25;11.50;;;8.90;;
16642;SDS011;8435;52.184;5.406;2024-02-21T08:29:52;10.67;;;8.83;;
16642;SDS011;8435;52.184;5.406;2024-02-21T08:32:19;12.43;;;8.90;;
16642;SDS011;8435;52.184;5.406;2024-02-21T08:34:45;12.43;;;8.23;;
16642;SDS011;8435;52.184;5.406;2024-02-21T08:37:12;12.00;;;8.97;;
16642;SDS011;8435;52.184;5.406;2024-02-21T08:39:39;12.10;;;9.73;;
16642;SDS011;8435;52.184;5.406;2024-02-21T08:42:07;13.97;;;9.50;;
16642;SDS011;8435;52.184;5.406;2024-02-21T08:44:34;16.20;;;9.27;;
16642;SDS011;8435;52.184;5.406;2024-02-21T08:47:00;12.07;;;10.03;;
16642;SDS011;8435;52.184;5.406;2024-02-21T08:49:28;12.03;;;9.67;;
16642;SDS011;8435;52.184;5.406;2024-02-21T08:51:56;12.23;;;9.73;;
16642;SDS011;8435;52.184;5.406;2024-02-21T08:54:23;13.60;;;10.03;;
16642;SDS011;8435;52.184;5.406;2024-02-21T08:56:49;12.10;;;10.27;;
16642;SDS011;8435;52.184;5.406;2024-02-21T08:59:17;12.13;;;9.97;;
16642;SDS011;8435;52.184;5.406;2024-02-21T09:01:45;13.30;;;9.67;;
16642;SDS011;8435;52.184;5.406;2024-02-21T09:04:12;13.47;;;9.93;;
16642;SDS011;8435;52.184;5.406;2024-02-21T09:06:39;11.10;;;9.87;;
16642;SDS011;8435;52.184;5.406;2024-02-21T09:09:07;12.13;;;9.90;;
16642;SDS011;8435;52.184;5.406;2024-02-21T09:11:34;13.03;;;9.50;;
16642;SDS011;8435;52.184;5.406;2024-02-21T09:14:02;11.40;;;9.50;;
16642;SDS011;8435;52.184;5.406;2024-02-21T09:16:31;10.83;;;9.73;;
16642;SDS011;8435;52.184;5.406;2024-02-21T09:18:58;10.97;;;9.13;;
16642;SDS011;8435;52.184;5.406;2024-02-21T09:21:25;13.23;;;9.47;;
16642;SDS011;8435;52.184;5.406;2024-02-21T09:23:53;11.77;;;9.53;;
16642;SDS011;8435;52.184;5.406;2024-02-21T09:26:19;9.83;;;8.83;;
16642;SDS011;8435;52.184;5.406;2024-02-21T09:28:46;10.93;;;8.27;;
16642;SDS011;8435;52.184;5.406;2024-02-21T09:31:13;10.47;;;8.93;;
16642;SDS011;8435;52.184;5.406;2024-02-21T09:33:41;10.83;;;8.20;;
16642;SDS011;8435;52.184;5.406;2024-02-21T09:36:08;11.57;;;8.30;;
16642;SDS011;8435;52.184;5.406;2024-02-21T09:38:35;8.90;;;7.80;;
16642;SDS011;8435;52.184;5.406;2024-02-21T09:41:04;10.37;;;7.60;;
16642;SDS011;8435;52.184;5.406;2024-02-21T09:43:39;8.27;;;7.40;;
16642;SDS011;8435;52.184;5.406;2024-02-21T09:46:07;9.80;;;8.03;;
16642;SDS011;8435;52.184;5.406;2024-02-21T09:48:42;9.73;;;7.53;;
16642;SDS011;8435;52.184;5.406;2024-02-21T09:51:24;11.03;;;7.10;;
16642;SDS011;8435;52.184;5.406;2024-02-21T09:53:54;10.17;;;7.23;;
16642;SDS011;8435;52.184;5.406;2024-02-21T09:56:23;8.77;;;6.60;;
16642;SDS011;8435;52.184;5.406;2024-02-21T09:58:50;8.23;;;6.80;;
16642;SDS011;8435;52.184;5.406;2024-02-21T10:01:17;7.83;;;7.00;;
16642;SDS011;8435;52.184;5.406;2024-02-21T10:03:45;8.87;;;7.13;;
16642;SDS011;8435;52.184;5.406;2024-02-21T10:06:12;7.63;;;6.63;;
16642;SDS011;8435;52.184;5.406;2024-02-21T10:08:38;8.13;;;6.60;;
16642;SDS011;8435;52.184;5.406;2024-02-21T10:11:05;9.93;;;7.27;;
16642;SDS011;8435;52.184;5.406;2024-02-21T10:13:37;7.80;;;6.27;;
16642;SDS011;8435;52.184;5.406;2024-02-21T10:16:05;7.37;;;6.53;;
16642;SDS011;8435;52.184;5.406;2024-02-21T10:18:33;7.87;;;6.60;;
16642;SDS011;8435;52.184;5.406;2024-02-21T10:21:04;10.50;;;6.83;;
16642;SDS011;8435;52.184;5.406;2024-02-21T10:23:44;7.83;;;6.70;;
16642;SDS011;8435;52.184;5.406;2024-02-21T10:26:12;8.10;;;6.53;;
16642;SDS011;8435;52.184;5.406;2024-02-21T10:28:39;7.63;;;5.87;;
16642;SDS011;8435;52.184;5.406;2024-02-21T10:31:07;8.17;;;5.63;;
16642;SDS011;8435;52.184;5.406;2024-02-21T10:33:35;7.80;;;5.80;;
16642;SDS011;8435;52.184;5.406;2024-02-21T10:36:10;7.40;;;6.33;;
16642;SDS011;8435;52.184;5.406;2024-02-21T10:38:38;9.53;;;6.20;;
16642;SDS011;8435;52.184;5.406;2024-02-21T10:41:05;7.90;;;5.60;;
16642;SDS011;8435;52.184;5.406;2024-02-21T10:43:34;7.10;;;5.80;;
16642;SDS011;8435;52.184;5.406;2024-02-21T10:46:05;7.37;;;5.70;;
16642;SDS011;8435;52.184;5.406;2024-02-21T10:48:36;6.03;;;5.43;;
16642;SDS011;8435;52.184;5.406;2024-02-21T10:51:14;6.57;;;5.30;;
16642;SDS011;8435;52.184;5.406;2024-02-21T10:53:44;7.40;;;5.13;;
16642;SDS011;8435;52.184;5.406;2024-02-21T10:56:22;5.43;;;4.93;;
16642;SDS011;8435;52.184;5.406;2024-02-21T10:58:54;5.37;;;4.87;;
16642;SDS011;8435;52.184;5.406;2024-02-21T11:01:23;6.03;;;4.60;;
16642;SDS011;8435;52.184;5.406;2024-02-21T11:03:52;6.03;;;4.80;;
16642;SDS011;8435;52.184;5.406;2024-02-21T11:06:25;4.93;;;4.50;;
16642;SDS011;8435;52.184;5.406;2024-02-21T11:09:01;4.70;;;4.00;;
16642;SDS011;8435;52.184;5.406;2024-02-21T11:11:29;5.97;;;4.67;;
16642;SDS011;8435;52.184;5.406;2024-02-21T11:14:06;5.40;;;4.27;;
16642;SDS011;8435;52.184;5.406;2024-02-21T11:16:35;5.10;;;4.43;;
16642;SDS011;8435;52.184;5.406;2024-02-21T11:19:04;5.17;;;4.70;;
16642;SDS011;8435;52.184;5.406;2024-02-21T11:21:36;5.10;;;4.60;;
16642;SDS011;8435;52.184;5.406;2024-02-21T11:24:03;5.80;;;5.07;;
16642;SDS011;8435;52.184;5.406;2024-02-21T11:26:32;5.10;;;4.70;;
16642;SDS011;8435;52.184;5.406;2024-02-21T11:28:59;5.47;;;4.97;;
16642;SDS011;8435;52.184;5.406;2024-02-21T11:31:27;6.20;;;5.43;;
16642;SDS011;8435;52.184;5.406;2024-02-21T11:34:05;5.53;;;5.13;;
16642;SDS011;8435;52.184;5.406;2024-02-21T11:36:39;5.80;;;4.90;;
16642;SDS011;8435;52.184;5.406;2024-02-21T11:39:13;6.67;;;5.97;;
16642;SDS011;8435;52.184;5.406;2024-02-21T11:41:45;6.03;;;5.40;;
16642;SDS011;8435;52.184;5.406;2024-02-21T11:44:12;5.10;;;4.70;;
16642;SDS011;8435;52.184;5.406;2024-02-21T11:46:40;6.43;;;5.83;;
16642;SDS011;8435;52.184;5.406;2024-02-21T11:49:07;6.43;;;5.83;;
16642;SDS011;8435;52.184;5.406;2024-02-21T11:51:34;6.37;;;5.33;;
16642;SDS011;8435;52.184;5.406;2024-02-21T11:54:02;5.60;;;5.10;;
16642;SDS011;8435;52.184;5.406;2024-02-21T11:56:29;6.80;;;5.80;;
16642;SDS011;8435;52.184;5.406;2024-02-21T11:58:58;7.17;;;5.60;;
16642;SDS011;8435;52.184;5.406;2024-02-21T12:01:25;7.93;;;6.10;;
16642;SDS011;8435;52.184;5.406;2024-02-21T12:03:52;5.93;;;5.43;;
16642;SDS011;8435;52.184;5.406;2024-02-21T12:06:19;7.47;;;5.77;;
16642;SDS011;8435;52.184;5.406;2024-02-21T12:08:47;6.60;;;5.77;;
16642;SDS011;8435;52.184;5.406;2024-02-21T12:11:21;6.00;;;5.40;;
16642;SDS011;8435;52.184;5.406;2024-02-21T12:13:58;6.00;;;5.50;;
16642;SDS011;8435;52.184;5.406;2024-02-21T12:16:26;6.40;;;5.80;;
16642;SDS011;8435;52.184;5.406;2024-02-21T12:18:54;7.00;;;6.30;;
16642;SDS011;8435;52.184;5.406;2024-02-21T12:21:23;7.53;;;5.47;;
16642;SDS011;8435;52.184;5.406;2024-02-21T12:23:50;6.40;;;5.80;;
16642;SDS011;8435;52.184;5.406;2024-02-21T12:26:17;7.47;;;5.93;;
16642;SDS011;8435;52.184;5.406;2024-02-21T12:28:45;7.43;;;6.40;;
16642;SDS011;8435;52.184;5.406;2024-02-21T12:31:12;6.57;;;5.80;;
16642;SDS011;8435;52.184;5.406;2024-02-21T12:33:41;7.17;;;5.60;;
16642;SDS011;8435;52.184;5.406;2024-02-21T12:36:08;6.17;;;5.43;;
16642;SDS011;8435;52.184;5.406;2024-02-21T12:38:34;6.00;;;5.33;;
16642;SDS011;8435;52.184;5.406;2024-02-21T12:41:01;7.93;;;5.67;;
16642;SDS011;8435;52.184;5.406;2024-02-21T12:43:28;5.87;;;5.33;;
16642;SDS011;8435;52.184;5.406;2024-02-21T12:45:56;6.80;;;4.97;;
16642;SDS011;8435;52.184;5.406;2024-02-21T12:48:23;5.50;;;5.07;;
16642;SDS011;8435;52.184;5.406;2024-02-21T12:50:50;5.63;;;5.03;;
16642;SDS011;8435;52.184;5.406;2024-02-21T12:53:17;6.80;;;5.20;;
16642;SDS011;8435;52.184;5.406;2024-02-21T12:55:46;7.10;;;5.10;;
16642;SDS011;8435;52.184;5.406;2024-02-21T12:58:13;5.60;;;4.80;;
16642;SDS011;8435;52.184;5.406;2024-02-21T13:00:40;7.30;;;4.77;;
16642;SDS011;8435;52.184;5.406;2024-02-21T13:03:09;4.90;;;4.40;;
16642;SDS011;8435;52.184;5.406;2024-02-21T13:05:36;5.67;;;4.53;;
16642;SDS011;8435;52.184;5.406;2024-02-21T13:08:04;5.80;;;4.80;;
16642;SDS011;8435;52.184;5.406;2024-02-21T13:10:31;4.80;;;4.40;;
16642;SDS011;8435;52.184;5.406;2024-02-21T13:12:59;5.73;;;4.67;;
16642;SDS011;8435;52.184;5.406;2024-02-21T13:15:26;5.83;;;4.50;;
16642;SDS011;8435;52.184;5.406;2024-02-21T13:17:53;4.90;;;4.40;;
16642;SDS011;8435;52.184;5.406;2024-02-21T13:20:21;4.77;;;4.23;;
16642;SDS011;8435;52.184;5.406;2024-02-21T13:22:48;4.70;;;4.10;;
16642;SDS011;8435;52.184;5.406;2024-02-21T13:25:15;6.13;;;4.20;;
16642;SDS011;8435;52.184;5.406;2024-02-21T13:27:45;4.57;;;4.07;;
16642;SDS011;8435;52.184;5.406;2024-02-21T13:30:12;5.97;;;4.17;;
16642;SDS011;8435;52.184;5.406;2024-02-21T13:32:40;4.17;;;3.77;;
16642;SDS011;8435;52.184;5.406;2024-02-21T13:35:07;5.50;;;3.90;;
16642;SDS011;8435;52.184;5.406;2024-02-21T13:37:38;6.10;;;4.43;;
16642;SDS011;8435;52.184;5.406;2024-02-21T13:40:05;4.30;;;3.90;;
16642;SDS011;8435;52.184;5.406;2024-02-21T13:42:34;4.13;;;3.73;;
16642;SDS011;8435;52.184;5.406;2024-02-21T13:45:00;4.40;;;4.00;;
16642;SDS011;8435;52.184;5.406;2024-02-21T13:47:28;7.07;;;3.63;;
16642;SDS011;8435;52.184;5.406;2024-02-21T13:49:55;6.07;;;4.17;;
16642;SDS011;8435;52.184;5.406;2024-02-21T13:52:22;5.27;;;3.80;;
16642;SDS011;8435;52.184;5.406;2024-02-21T13:54:52;5.73;;;3.77;;
16642;SDS011;8435;52.184;5.406;2024-02-21T13:57:27;5.97;;;4.00;;
16642;SDS011;8435;52.184;5.406;2024-02-21T13:59:54;6.27;;;4.17;;
16642;SDS011;8435;52.184;5.406;2024-02-21T14:02:21;5.23;;;3.70;;
16642;SDS011;8435;52.184;5.406;2024-02-21T14:04:48;4.97;;;3.60;;
16642;SDS011;8435;52.184;5.406;2024-02-21T14:07:15;4.53;;;3.60;;
16642;SDS011;8435;52.184;5.406;2024-02-21T14:09:42;4.47;;;3.40;;
16642;SDS011;8435;52.184;5.406;2024-02-21T14:12:10;5.93;;;3.67;;
16642;SDS011;8435;52.184;5.406;2024-02-21T14:14:37;5.17;;;3.80;;
16642;SDS011;8435;52.184;5.406;2024-02-21T14:17:04;3.97;;;3.53;;
16642;SDS011;8435;52.184;5.406;2024-02-21T14:19:30;4.47;;;3.20;;
16642;SDS011;8435;52.184;5.406;2024-02-21T14:21:57;4.63;;;3.60;;
16642;SDS011;8435;52.184;5.406;2024-02-21T14:24:24;4.20;;;3.50;;
16642;SDS011;8435;52.184;5.406;2024-02-21T14:26:52;5.70;;;3.57;;
16642;SDS011;8435;52.184;5.406;2024-02-21T14:29:21;7.93;;;3.80;;
16642;SDS011;8435;52.184;5.406;2024-02-21T14:31:48;4.37;;;3.20;;
16642;SDS011;8435;52.184;5.406;2024-02-21T14:34:14;7.03;;;3.87;;
16642;SDS011;8435;52.184;5.406;2024-02-21T14:36:41;5.13;;;3.50;;
16642;SDS011;8435;52.184;5.406;2024-02-21T14:39:08;4.57;;;3.00;;
16642;SDS011;8435;52.184;5.406;2024-02-21T14:41:35;4.57;;;3.60;;
16642;SDS011;8435;52.184;5.406;2024-02-21T14:44:02;6.73;;;3.40;;
16642;SDS011;8435;52.184;5.406;2024-02-21T14:46:33;3.33;;;2.90;;
16642;SDS011;8435;52.184;5.406;2024-02-21T14:49:04;5.90;;;3.80;;
16642;SDS011;8435;52.184;5.406;2024-02-21T14:51:30;4.43;;;3.33;;
16642;SDS011;8435;52.184;5.406;2024-02-21T14:53:58;5.83;;;3.57;;
16642;SDS011;8435;52.184;5.406;2024-02-21T14:56:25;5.53;;;3.27;;
16642;SDS011;8435;52.184;5.406;2024-02-21T14:58:51;4.70;;;3.20;;
16642;SDS011;8435;52.184;5.406;2024-02-21T15:01:18;5.20;;;3.40;;